sensor_id;sensor_type;location;lat;lon;timestamp;P1;durP1;ratioP1;P2;durP2;ratioP2
24567;SDS011;12731;52.182;8.716;2023-03-13T00:01:11;27.45;;;5.20;;
24567;SDS011;12731;52.182;8.716;2023-03-13T00:03:40;27.70;;;6.07;;
24567;SDS011;12731;52.182;8.716;2023-03-13T00:06:06;29.08;;;6.15;;
24567;SDS011;12731;52.182;8.716;2023-03-13T00:08:33;27.80;;;5.18;;
24567;SDS011;12731;52.182;8.716;2023-03-13T00:11:03;24.45;;;5.07;;
24567;SDS011;12731;52.182;8.716;2023-03-13T00:13:30;25.50;;;5.30;;
24567;SDS011;12731;52.182;8.716;2023-03-13T00:16:02;30.40;;;5.55;;
24567;SDS011;12731;52.182;8.716;2023-03-13T00:18:33;26.88;;;5.40;;
24567;SDS011;12731;52.182;8.716;2023-03-13T00:21:00;26.05;;;5.47;;
24567;SDS011;12731;52.182;8.716;2023-03-13T00:23:28;30.33;;;5.28;;
24567;SDS011;12731;52.182;8.716;2023-03-13T00:25:58;26.58;;;5.55;;
24567;SDS011;12731;52.182;8.716;2023-03-13T00:28:29;24.42;;;5.65;;
24567;SDS011;12731;52.182;8.716;2023-03-13T00:31:08;22.00;;;5.57;;
24567;SDS011;12731;52.182;8.716;2023-03-13T00:33:37;30.92;;;5.35;;
24567;SDS011;12731;52.182;8.716;2023-03-13T00:36:09;25.73;;;5.68;;
24567;SDS011;12731;52.182;8.716;2023-03-13T00:38:37;30.02;;;5.85;;
24567;SDS011;12731;52.182;8.716;2023-03-13T00:41:08;31.20;;;5.43;;
24567;SDS011;12731;52.182;8.716;2023-03-13T00:43:39;23.20;;;4.80;;
24567;SDS011;12731;52.182;8.716;2023-03-13T00:46:07;27.20;;;4.88;;
24567;SDS011;12731;52.182;8.716;2023-03-13T00:48:33;28.33;;;5.20;;
24567;SDS011;12731;52.182;8.716;2023-03-13T00:51:00;25.00;;;5.93;;
24567;SDS011;12731;52.182;8.716;2023-03-13T00:53:27;28.85;;;5.05;;
24567;SDS011;12731;52.182;8.716;2023-03-13T00:55:57;24.30;;;4.90;;
24567;SDS011;12731;52.182;8.716;2023-03-13T00:58:25;22.98;;;4.40;;
24567;SDS011;12731;52.182;8.716;2023-03-13T01:00:53;31.67;;;5.00;;
24567;SDS011;12731;52.182;8.716;2023-03-13T01:03:20;29.05;;;4.93;;
24567;SDS011;12731;52.182;8.716;2023-03-13T01:05:54;21.48;;;4.80;;
24567;SDS011;12731;52.182;8.716;2023-03-13T01:08:24;25.73;;;4.65;;
24567;SDS011;12731;52.182;8.716;2023-03-13T01:10:56;28.63;;;5.05;;
24567;SDS011;12731;52.182;8.716;2023-03-13T01:13:27;26.35;;;4.95;;
24567;SDS011;12731;52.182;8.716;2023-03-13T01:15:54;23.38;;;4.82;;
24567;SDS011;12731;52.182;8.716;2023-03-13T01:18:21;23.95;;;4.88;;
24567;SDS011;12731;52.182;8.716;2023-03-13T01:20:47;19.77;;;4.25;;
24567;SDS011;12731;52.182;8.716;2023-03-13T01:23:14;21.55;;;4.38;;
24567;SDS011;12731;52.182;8.716;2023-03-13T01:25:40;25.20;;;5.25;;
24567;SDS011;12731;52.182;8.716;2023-03-13T01:28:07;19.58;;;4.22;;
24567;SDS011;12731;52.182;8.716;2023-03-13T01:30:33;23.48;;;4.43;;
24567;SDS011;12731;52.182;8.716;2023-03-13T01:33:00;22.15;;;4.38;;
24567;SDS011;12731;52.182;8.716;2023-03-13T01:35:27;19.98;;;4.60;;
24567;SDS011;12731;52.182;8.716;2023-03-13T01:37:53;25.35;;;5.20;;
24567;SDS011;12731;52.182;8.716;2023-03-13T01:40:20;20.73;;;4.78;;
24567;SDS011;12731;52.182;8.716;2023-03-13T01:42:53;22.42;;;4.25;;
24567;SDS011;12731;52.182;8.716;2023-03-13T01:48:30;24.15;;;4.80;;
24567;SDS011;12731;52.182;8.716;2023-03-13T01:51:35;25.27;;;4.63;;
24567;SDS011;12731;52.182;8.716;2023-03-13T01:54:17;21.58;;;4.80;;
24567;SDS011;12731;52.182;8.716;2023-03-13T01:56:48;22.90;;;4.60;;
24567;SDS011;12731;52.182;8.716;2023-03-13T01:59:22;20.52;;;4.18;;
24567;SDS011;12731;52.182;8.716;2023-03-13T02:01:51;18.02;;;4.10;;
24567;SDS011;12731;52.182;8.716;2023-03-13T02:04:18;25.08;;;4.95;;
24567;SDS011;12731;52.182;8.716;2023-03-13T02:06:46;21.42;;;4.68;;
24567;SDS011;12731;52.182;8.716;2023-03-13T02:09:16;27.85;;;5.45;;
24567;SDS011;12731;52.182;8.716;2023-03-13T02:11:52;21.25;;;4.78;;
24567;SDS011;12731;52.182;8.716;2023-03-13T02:14:22;23.27;;;4.45;;
24567;SDS011;12731;52.182;8.716;2023-03-13T02:16:52;21.40;;;4.93;;
24567;SDS011;12731;52.182;8.716;2023-03-13T02:19:27;21.67;;;4.95;;
24567;SDS011;12731;52.182;8.716;2023-03-13T02:24:44;21.20;;;4.22;;
24567;SDS011;12731;52.182;8.716;2023-03-13T02:27:15;24.80;;;4.78;;
24567;SDS011;12731;52.182;8.716;2023-03-13T02:29:42;17.58;;;4.20;;
24567;SDS011;12731;52.182;8.716;2023-03-13T02:32:08;26.63;;;4.35;;
24567;SDS011;12731;52.182;8.716;2023-03-13T02:34:35;24.08;;;4.35;;
24567;SDS011;12731;52.182;8.716;2023-03-13T02:37:03;18.88;;;4.32;;
24567;SDS011;12731;52.182;8.716;2023-03-13T02:39:31;23.63;;;4.57;;
24567;SDS011;12731;52.182;8.716;2023-03-13T02:41:58;20.38;;;4.47;;
24567;SDS011;12731;52.182;8.716;2023-03-13T02:44:26;24.55;;;5.00;;
24567;SDS011;12731;52.182;8.716;2023-03-13T02:46:53;24.27;;;4.40;;
24567;SDS011;12731;52.182;8.716;2023-03-13T02:49:23;26.95;;;5.07;;
24567;SDS011;12731;52.182;8.716;2023-03-13T02:51:52;20.90;;;4.40;;
24567;SDS011;12731;52.182;8.716;2023-03-13T02:54:21;22.10;;;4.60;;
24567;SDS011;12731;52.182;8.716;2023-03-13T02:56:51;22.00;;;4.07;;
24567;SDS011;12731;52.182;8.716;2023-03-13T02:59:21;20.80;;;4.05;;
24567;SDS011;12731;52.182;8.716;2023-03-13T03:01:48;21.27;;;4.35;;
24567;SDS011;12731;52.182;8.716;2023-03-13T03:04:21;21.70;;;3.95;;
24567;SDS011;12731;52.182;8.716;2023-03-13T03:06:48;21.05;;;4.47;;
24567;SDS011;12731;52.182;8.716;2023-03-13T03:09:15;21.48;;;4.38;;
24567;SDS011;12731;52.182;8.716;2023-03-13T03:11:43;26.02;;;4.47;;
24567;SDS011;12731;52.182;8.716;2023-03-13T03:14:09;23.75;;;3.97;;
24567;SDS011;12731;52.182;8.716;2023-03-13T03:16:37;19.20;;;3.97;;
24567;SDS011;12731;52.182;8.716;2023-03-13T03:19:04;28.30;;;5.32;;
24567;SDS011;12731;52.182;8.716;2023-03-13T03:21:31;23.98;;;4.47;;
24567;SDS011;12731;52.182;8.716;2023-03-13T03:23:58;24.50;;;4.57;;
24567;SDS011;12731;52.182;8.716;2023-03-13T03:26:25;22.45;;;4.57;;
24567;SDS011;12731;52.182;8.716;2023-03-13T03:28:51;24.40;;;4.47;;
24567;SDS011;12731;52.182;8.716;2023-03-13T03:31:18;25.58;;;4.68;;
24567;SDS011;12731;52.182;8.716;2023-03-13T03:33:44;30.30;;;5.00;;
24567;SDS011;12731;52.182;8.716;2023-03-13T03:36:12;18.10;;;4.40;;
24567;SDS011;12731;52.182;8.716;2023-03-13T03:38:40;19.70;;;3.90;;
24567;SDS011;12731;52.182;8.716;2023-03-13T03:41:08;24.27;;;4.30;;
24567;SDS011;12731;52.182;8.716;2023-03-13T03:43:35;21.20;;;4.13;;
24567;SDS011;12731;52.182;8.716;2023-03-13T03:46:01;20.95;;;4.53;;
24567;SDS011;12731;52.182;8.716;2023-03-13T03:48:28;19.33;;;4.35;;
24567;SDS011;12731;52.182;8.716;2023-03-13T03:50:55;18.85;;;4.20;;
24567;SDS011;12731;52.182;8.716;2023-03-13T03:53:21;27.38;;;4.60;;
24567;SDS011;12731;52.182;8.716;2023-03-13T03:55:48;25.48;;;4.65;;
24567;SDS011;12731;52.182;8.716;2023-03-13T03:58:14;25.67;;;5.43;;
24567;SDS011;12731;52.182;8.716;2023-03-13T04:00:44;25.10;;;5.80;;
24567;SDS011;12731;52.182;8.716;2023-03-13T04:03:11;23.60;;;4.60;;
24567;SDS011;12731;52.182;8.716;2023-03-13T04:05:38;18.70;;;4.50;;
24567;SDS011;12731;52.182;8.716;2023-03-13T04:08:05;19.52;;;4.45;;
24567;SDS011;12731;52.182;8.716;2023-03-13T04:10:32;16.45;;;4.35;;
24567;SDS011;12731;52.182;8.716;2023-03-13T04:13:00;19.15;;;4.22;;
24567;SDS011;12731;52.182;8.716;2023-03-13T04:15:26;19.20;;;4.18;;
24567;SDS011;12731;52.182;8.716;2023-03-13T04:17:53;20.88;;;4.45;;
24567;SDS011;12731;52.182;8.716;2023-03-13T04:20:19;24.48;;;5.05;;
24567;SDS011;12731;52.182;8.716;2023-03-13T04:22:46;17.98;;;3.97;;
24567;SDS011;12731;52.182;8.716;2023-03-13T04:25:12;22.02;;;4.60;;
24567;SDS011;12731;52.182;8.716;2023-03-13T04:27:39;20.80;;;4.65;;
24567;SDS011;12731;52.182;8.716;2023-03-13T04:30:05;14.48;;;3.92;;
24567;SDS011;12731;52.182;8.716;2023-03-13T04:32:32;19.63;;;4.28;;
24567;SDS011;12731;52.182;8.716;2023-03-13T04:34:59;16.05;;;4.05;;
24567;SDS011;12731;52.182;8.716;2023-03-13T04:37:25;15.82;;;4.07;;
24567;SDS011;12731;52.182;8.716;2023-03-13T04:39:52;20.88;;;4.35;;
24567;SDS011;12731;52.182;8.716;2023-03-13T04:42:18;17.85;;;4.40;;
24567;SDS011;12731;52.182;8.716;2023-03-13T04:44:45;21.10;;;4.65;;
24567;SDS011;12731;52.182;8.716;2023-03-13T04:47:11;19.05;;;4.13;;
24567;SDS011;12731;52.182;8.716;2023-03-13T04:49:37;17.60;;;3.90;;
24567;SDS011;12731;52.182;8.716;2023-03-13T04:52:04;18.20;;;3.58;;
24567;SDS011;12731;52.182;8.716;2023-03-13T04:54:30;16.80;;;3.75;;
24567;SDS011;12731;52.182;8.716;2023-03-13T04:56:57;14.70;;;3.67;;
24567;SDS011;12731;52.182;8.716;2023-03-13T04:59:23;11.38;;;3.22;;
24567;SDS011;12731;52.182;8.716;2023-03-13T05:01:49;14.13;;;3.47;;
24567;SDS011;12731;52.182;8.716;2023-03-13T05:04:16;17.95;;;3.50;;
24567;SDS011;12731;52.182;8.716;2023-03-13T05:06:42;10.90;;;2.90;;
24567;SDS011;12731;52.182;8.716;2023-03-13T05:09:09;10.52;;;3.08;;
24567;SDS011;12731;52.182;8.716;2023-03-13T05:11:35;13.35;;;3.00;;
24567;SDS011;12731;52.182;8.716;2023-03-13T05:14:02;12.38;;;3.47;;
24567;SDS011;12731;52.182;8.716;2023-03-13T05:16:29;11.60;;;2.75;;
24567;SDS011;12731;52.182;8.716;2023-03-13T05:18:56;9.25;;;3.08;;
24567;SDS011;12731;52.182;8.716;2023-03-13T05:21:22;13.07;;;3.08;;
24567;SDS011;12731;52.182;8.716;2023-03-13T05:23:48;8.20;;;2.85;;
24567;SDS011;12731;52.182;8.716;2023-03-13T05:26:15;13.70;;;3.40;;
24567;SDS011;12731;52.182;8.716;2023-03-13T05:28:42;13.32;;;3.25;;
24567;SDS011;12731;52.182;8.716;2023-03-13T05:31:08;12.05;;;3.08;;
24567;SDS011;12731;52.182;8.716;2023-03-13T05:33:35;11.93;;;3.97;;
24567;SDS011;12731;52.182;8.716;2023-03-13T05:36:01;8.95;;;3.15;;
24567;SDS011;12731;52.182;8.716;2023-03-13T05:38:28;12.82;;;3.75;;
24567;SDS011;12731;52.182;8.716;2023-03-13T05:40:54;7.00;;;4.22;;
24567;SDS011;12731;52.182;8.716;2023-03-13T05:43:20;8.27;;;3.20;;
24567;SDS011;12731;52.182;8.716;2023-03-13T05:45:47;7.68;;;3.33;;
24567;SDS011;12731;52.182;8.716;2023-03-13T05:48:13;6.75;;;3.35;;
24567;SDS011;12731;52.182;8.716;2023-03-13T05:50:40;7.63;;;3.63;;
24567;SDS011;12731;52.182;8.716;2023-03-13T05:53:06;7.10;;;3.60;;
24567;SDS011;12731;52.182;8.716;2023-03-13T05:55:33;8.32;;;3.97;;
24567;SDS011;12731;52.182;8.716;2023-03-13T05:58:00;9.18;;;4.20;;
24567;SDS011;12731;52.182;8.716;2023-03-13T06:00:27;11.27;;;4.20;;
24567;SDS011;12731;52.182;8.716;2023-03-13T06:02:53;12.45;;;4.43;;
24567;SDS011;12731;52.182;8.716;2023-03-13T06:05:20;8.02;;;4.57;;
24567;SDS011;12731;52.182;8.716;2023-03-13T06:07:47;10.68;;;5.05;;
24567;SDS011;12731;52.182;8.716;2023-03-13T06:10:15;10.55;;;4.65;;
24567;SDS011;12731;52.182;8.716;2023-03-13T06:12:41;7.32;;;3.97;;
24567;SDS011;12731;52.182;8.716;2023-03-13T06:15:08;10.48;;;4.63;;
24567;SDS011;12731;52.182;8.716;2023-03-13T06:17:37;6.45;;;4.22;;
24567;SDS011;12731;52.182;8.716;2023-03-13T06:20:03;8.88;;;4.75;;
24567;SDS011;12731;52.182;8.716;2023-03-13T06:22:31;7.03;;;4.10;;
24567;SDS011;12731;52.182;8.716;2023-03-13T06:24:57;4.55;;;4.05;;
24567;SDS011;12731;52.182;8.716;2023-03-13T06:27:23;5.57;;;4.00;;
24567;SDS011;12731;52.182;8.716;2023-03-13T06:29:50;4.93;;;3.92;;
24567;SDS011;12731;52.182;8.716;2023-03-13T06:32:16;5.45;;;3.67;;
24567;SDS011;12731;52.182;8.716;2023-03-13T06:34:43;7.10;;;4.35;;
24567;SDS011;12731;52.182;8.716;2023-03-13T06:37:09;7.68;;;4.75;;
24567;SDS011;12731;52.182;8.716;2023-03-13T06:39:36;5.30;;;4.32;;
24567;SDS011;12731;52.182;8.716;2023-03-13T06:42:02;7.50;;;4.72;;
24567;SDS011;12731;52.182;8.716;2023-03-13T06:44:29;6.53;;;4.65;;
24567;SDS011;12731;52.182;8.716;2023-03-13T06:46:55;5.97;;;5.00;;
24567;SDS011;12731;52.182;8.716;2023-03-13T06:49:21;6.75;;;5.40;;
24567;SDS011;12731;52.182;8.716;2023-03-13T06:51:48;6.35;;;5.20;;
24567;SDS011;12731;52.182;8.716;2023-03-13T06:54:14;6.10;;;5.05;;
24567;SDS011;12731;52.182;8.716;2023-03-13T06:56:41;7.20;;;5.15;;
24567;SDS011;12731;52.182;8.716;2023-03-13T06:59:07;8.00;;;5.93;;
24567;SDS011;12731;52.182;8.716;2023-03-13T07:01:34;6.55;;;5.18;;
24567;SDS011;12731;52.182;8.716;2023-03-13T07:04:00;6.25;;;5.65;;
24567;SDS011;12731;52.182;8.716;2023-03-13T07:06:29;7.15;;;6.00;;
24567;SDS011;12731;52.182;8.716;2023-03-13T07:08:56;7.97;;;6.00;;
24567;SDS011;12731;52.182;8.716;2023-03-13T07:11:22;6.97;;;6.28;;
24567;SDS011;12731;52.182;8.716;2023-03-13T07:13:52;8.88;;;7.30;;
24567;SDS011;12731;52.182;8.716;2023-03-13T07:16:35;12.48;;;7.70;;
24567;SDS011;12731;52.182;8.716;2023-03-13T07:19:01;12.27;;;8.10;;
24567;SDS011;12731;52.182;8.716;2023-03-13T07:21:27;9.13;;;8.05;;
24567;SDS011;12731;52.182;8.716;2023-03-13T07:23:54;10.80;;;8.50;;
24567;SDS011;12731;52.182;8.716;2023-03-13T07:26:20;10.98;;;9.38;;
24567;SDS011;12731;52.182;8.716;2023-03-13T07:28:47;9.65;;;8.75;;
24567;SDS011;12731;52.182;8.716;2023-03-13T07:31:14;13.63;;;8.77;;
24567;SDS011;12731;52.182;8.716;2023-03-13T07:33:42;10.68;;;8.73;;
24567;SDS011;12731;52.182;8.716;2023-03-13T07:36:10;8.73;;;7.82;;
24567;SDS011;12731;52.182;8.716;2023-03-13T07:38:37;10.75;;;8.60;;
24567;SDS011;12731;52.182;8.716;2023-03-13T07:41:04;10.57;;;8.02;;
24567;SDS011;12731;52.182;8.716;2023-03-13T07:43:30;9.32;;;7.75;;
24567;SDS011;12731;52.182;8.716;2023-03-13T07:45:58;9.02;;;7.85;;
24567;SDS011;12731;52.182;8.716;2023-03-13T07:48:30;10.30;;;6.90;;
24567;SDS011;12731;52.182;8.716;2023-03-13T07:50:58;10.13;;;6.65;;
24567;SDS011;12731;52.182;8.716;2023-03-13T07:53:25;8.70;;;6.78;;
24567;SDS011;12731;52.182;8.716;2023-03-13T07:56:02;7.30;;;6.50;;
24567;SDS011;12731;52.182;8.716;2023-03-13T07:58:31;9.60;;;6.30;;
24567;SDS011;12731;52.182;8.716;2023-03-13T08:00:59;7.10;;;5.82;;
24567;SDS011;12731;52.182;8.716;2023-03-13T08:03:26;8.77;;;5.88;;
24567;SDS011;12731;52.182;8.716;2023-03-13T08:05:57;6.07;;;5.18;;
24567;SDS011;12731;52.182;8.716;2023-03-13T08:08:25;8.93;;;5.25;;
24567;SDS011;12731;52.182;8.716;2023-03-13T08:13:34;5.55;;;4.65;;
24567;SDS011;12731;52.182;8.716;2023-03-13T08:16:02;7.90;;;4.88;;
24567;SDS011;12731;52.182;8.716;2023-03-13T08:18:28;6.03;;;4.35;;
24567;SDS011;12731;52.182;8.716;2023-03-13T08:21:00;5.45;;;4.18;;
24567;SDS011;12731;52.182;8.716;2023-03-13T08:23:28;5.32;;;3.90;;
24567;SDS011;12731;52.182;8.716;2023-03-13T08:25:54;5.43;;;3.67;;
24567;SDS011;12731;52.182;8.716;2023-03-13T08:28:20;6.07;;;4.10;;
24567;SDS011;12731;52.182;8.716;2023-03-13T08:30:47;7.72;;;4.50;;
24567;SDS011;12731;52.182;8.716;2023-03-13T08:33:13;4.65;;;3.92;;
24567;SDS011;12731;52.182;8.716;2023-03-13T08:35:40;7.25;;;4.35;;
24567;SDS011;12731;52.182;8.716;2023-03-13T08:38:06;6.22;;;4.13;;
24567;SDS011;12731;52.182;8.716;2023-03-13T08:40:33;5.07;;;3.70;;
24567;SDS011;12731;52.182;8.716;2023-03-13T08:42:59;6.82;;;4.10;;
24567;SDS011;12731;52.182;8.716;2023-03-13T08:45:26;6.07;;;3.55;;
24567;SDS011;12731;52.182;8.716;2023-03-13T08:47:52;4.60;;;3.28;;
24567;SDS011;12731;52.182;8.716;2023-03-13T08:50:19;4.57;;;3.40;;
24567;SDS011;12731;52.182;8.716;2023-03-13T08:52:45;5.95;;;3.20;;
24567;SDS011;12731;52.182;8.716;2023-03-13T08:55:12;6.13;;;3.50;;
24567;SDS011;12731;52.182;8.716;2023-03-13T08:57:38;5.88;;;3.35;;
24567;SDS011;12731;52.182;8.716;2023-03-13T09:00:05;6.07;;;3.42;;
24567;SDS011;12731;52.182;8.716;2023-03-13T09:02:32;7.53;;;3.33;;
24567;SDS011;12731;52.182;8.716;2023-03-13T09:04:59;5.72;;;3.20;;
24567;SDS011;12731;52.182;8.716;2023-03-13T09:07:31;7.95;;;3.42;;
24567;SDS011;12731;52.182;8.716;2023-03-13T09:12:24;4.35;;;3.03;;
24567;SDS011;12731;52.182;8.716;2023-03-13T09:14:56;3.88;;;2.95;;
24567;SDS011;12731;52.182;8.716;2023-03-13T09:17:23;7.30;;;2.95;;
24567;SDS011;12731;52.182;8.716;2023-03-13T09:19:49;5.70;;;3.10;;
24567;SDS011;12731;52.182;8.716;2023-03-13T09:22:25;3.65;;;2.80;;
24567;SDS011;12731;52.182;8.716;2023-03-13T09:24:52;5.07;;;2.90;;
24567;SDS011;12731;52.182;8.716;2023-03-13T09:27:18;6.85;;;2.90;;
24567;SDS011;12731;52.182;8.716;2023-03-13T09:29:45;4.43;;;2.40;;
24567;SDS011;12731;52.182;8.716;2023-03-13T09:32:11;6.00;;;2.60;;
24567;SDS011;12731;52.182;8.716;2023-03-13T09:34:38;4.47;;;2.83;;
24567;SDS011;12731;52.182;8.716;2023-03-13T09:37:04;7.70;;;2.80;;
24567;SDS011;12731;52.182;8.716;2023-03-13T09:39:30;5.97;;;2.72;;
24567;SDS011;12731;52.182;8.716;2023-03-13T09:42:13;6.43;;;2.95;;
24567;SDS011;12731;52.182;8.716;2023-03-13T09:44:43;9.13;;;2.90;;
24567;SDS011;12731;52.182;8.716;2023-03-13T09:47:19;7.23;;;3.27;;
24567;SDS011;12731;52.182;8.716;2023-03-13T09:49:51;7.95;;;3.42;;
24567;SDS011;12731;52.182;8.716;2023-03-13T09:52:24;8.30;;;3.10;;
24567;SDS011;12731;52.182;8.716;2023-03-13T09:54:53;8.43;;;3.77;;
24567;SDS011;12731;52.182;8.716;2023-03-13T09:57:39;7.03;;;3.80;;
24567;SDS011;12731;52.182;8.716;2023-03-13T10:02:56;7.45;;;3.40;;
24567;SDS011;12731;52.182;8.716;2023-03-13T10:05:27;5.60;;;3.40;;
24567;SDS011;12731;52.182;8.716;2023-03-13T10:08:11;9.82;;;3.10;;
24567;SDS011;12731;52.182;8.716;2023-03-13T10:10:44;6.60;;;3.53;;
24567;SDS011;12731;52.182;8.716;2023-03-13T10:13:18;5.72;;;3.15;;
24567;SDS011;12731;52.182;8.716;2023-03-13T10:15:57;7.53;;;3.08;;
24567;SDS011;12731;52.182;8.716;2023-03-13T10:18:26;8.20;;;3.08;;
24567;SDS011;12731;52.182;8.716;2023-03-13T10:20:55;6.03;;;3.08;;
24567;SDS011;12731;52.182;8.716;2023-03-13T10:26:15;8.90;;;2.90;;
24567;SDS011;12731;52.182;8.716;2023-03-13T10:28:52;9.82;;;3.42;;
24567;SDS011;12731;52.182;8.716;2023-03-13T10:31:32;5.00;;;2.50;;
24567;SDS011;12731;52.182;8.716;2023-03-13T10:34:07;6.07;;;3.55;;
24567;SDS011;12731;52.182;8.716;2023-03-13T10:36:39;8.95;;;2.67;;
24567;SDS011;12731;52.182;8.716;2023-03-13T10:39:13;8.10;;;4.15;;
24567;SDS011;12731;52.182;8.716;2023-03-13T10:41:42;6.03;;;2.65;;
24567;SDS011;12731;52.182;8.716;2023-03-13T10:44:16;6.47;;;3.30;;
24567;SDS011;12731;52.182;8.716;2023-03-13T10:46:49;5.80;;;2.85;;
24567;SDS011;12731;52.182;8.716;2023-03-13T10:49:17;5.22;;;2.65;;
24567;SDS011;12731;52.182;8.716;2023-03-13T10:51:52;6.95;;;3.08;;
24567;SDS011;12731;52.182;8.716;2023-03-13T10:54:23;6.78;;;2.83;;
24567;SDS011;12731;52.182;8.716;2023-03-13T10:56:52;9.05;;;3.00;;
24567;SDS011;12731;52.182;8.716;2023-03-13T10:59:37;6.95;;;3.17;;
24567;SDS011;12731;52.182;8.716;2023-03-13T11:02:19;7.53;;;3.35;;
24567;SDS011;12731;52.182;8.716;2023-03-13T11:04:52;4.80;;;2.70;;
24567;SDS011;12731;52.182;8.716;2023-03-13T11:10:02;5.57;;;2.40;;
24567;SDS011;12731;52.182;8.716;2023-03-13T11:12:46;5.40;;;2.53;;
24567;SDS011;12731;52.182;8.716;2023-03-13T11:15:14;6.47;;;2.53;;
24567;SDS011;12731;52.182;8.716;2023-03-13T11:17:42;8.45;;;2.17;;
24567;SDS011;12731;52.182;8.716;2023-03-13T11:20:25;4.50;;;1.98;;
24567;SDS011;12731;52.182;8.716;2023-03-13T11:23:04;4.28;;;2.03;;
24567;SDS011;12731;52.182;8.716;2023-03-13T11:28:19;6.75;;;2.50;;
24567;SDS011;12731;52.182;8.716;2023-03-13T11:36:41;4.93;;;2.00;;
24567;SDS011;12731;52.182;8.716;2023-03-13T11:50:54;4.28;;;1.70;;
24567;SDS011;12731;52.182;8.716;2023-03-13T11:56:02;4.30;;;1.70;;
24567;SDS011;12731;52.182;8.716;2023-03-13T12:01:26;2.85;;;1.80;;
24567;SDS011;12731;52.182;8.716;2023-03-13T12:03:57;2.72;;;1.58;;
24567;SDS011;12731;52.182;8.716;2023-03-13T12:17:12;6.50;;;1.65;;
24567;SDS011;12731;52.182;8.716;2023-03-13T12:22:14;4.18;;;1.52;;
24567;SDS011;12731;52.182;8.716;2023-03-13T12:25:04;6.50;;;2.00;;
24567;SDS011;12731;52.182;8.716;2023-03-13T12:27:41;2.47;;;1.40;;
24567;SDS011;12731;52.182;8.716;2023-03-13T12:30:30;4.07;;;1.40;;
24567;SDS011;12731;52.182;8.716;2023-03-13T12:36:09;4.20;;;1.63;;
24567;SDS011;12731;52.182;8.716;2023-03-13T12:38:55;4.40;;;1.50;;
24567;SDS011;12731;52.182;8.716;2023-03-13T12:41:27;4.20;;;1.60;;
24567;SDS011;12731;52.182;8.716;2023-03-13T12:43:57;3.30;;;1.45;;
24567;SDS011;12731;52.182;8.716;2023-03-13T12:52:01;3.78;;;1.50;;
24567;SDS011;12731;52.182;8.716;2023-03-13T13:00:13;4.30;;;1.40;;
24567;SDS011;12731;52.182;8.716;2023-03-13T13:02:41;2.53;;;1.40;;
24567;SDS011;12731;52.182;8.716;2023-03-13T13:05:18;3.00;;;1.20;;
24567;SDS011;12731;52.182;8.716;2023-03-13T13:07:53;4.70;;;1.38;;
24567;SDS011;12731;52.182;8.716;2023-03-13T13:10:21;2.85;;;1.20;;
24567;SDS011;12731;52.182;8.716;2023-03-13T13:15:58;2.40;;;1.10;;
24567;SDS011;12731;52.182;8.716;2023-03-13T13:18:27;2.65;;;1.02;;
24567;SDS011;12731;52.182;8.716;2023-03-13T13:23:41;1.92;;;0.80;;
24567;SDS011;12731;52.182;8.716;2023-03-13T13:28:59;2.20;;;0.80;;
24567;SDS011;12731;52.182;8.716;2023-03-13T13:39:32;1.38;;;0.85;;
24567;SDS011;12731;52.182;8.716;2023-03-13T13:43:04;4.18;;;0.80;;
24567;SDS011;12731;52.182;8.716;2023-03-13T13:47:42;3.50;;;0.95;;
24567;SDS011;12731;52.182;8.716;2023-03-13T13:50:28;0.88;;;0.70;;
24567;SDS011;12731;52.182;8.716;2023-03-13T13:59:15;1.23;;;0.70;;
24567;SDS011;12731;52.182;8.716;2023-03-13T14:04:29;2.40;;;0.90;;
24567;SDS011;12731;52.182;8.716;2023-03-13T14:07:00;2.30;;;0.80;;
24567;SDS011;12731;52.182;8.716;2023-03-13T14:12:22;2.90;;;0.70;;
24567;SDS011;12731;52.182;8.716;2023-03-13T14:15:19;3.13;;;1.20;;
24567;SDS011;12731;52.182;8.716;2023-03-13T14:17:51;1.52;;;0.90;;
24567;SDS011;12731;52.182;8.716;2023-03-13T14:20:36;1.85;;;0.95;;
24567;SDS011;12731;52.182;8.716;2023-03-13T14:23:05;1.65;;;1.00;;
24567;SDS011;12731;52.182;8.716;2023-03-13T14:25:48;2.63;;;0.93;;
24567;SDS011;12731;52.182;8.716;2023-03-13T14:28:26;3.00;;;0.90;;
24567;SDS011;12731;52.182;8.716;2023-03-13T14:30:55;2.22;;;1.02;;
24567;SDS011;12731;52.182;8.716;2023-03-13T14:33:22;1.23;;;0.70;;
24567;SDS011;12731;52.182;8.716;2023-03-13T14:35:50;3.17;;;1.02;;
24567;SDS011;12731;52.182;8.716;2023-03-13T14:38:18;0.80;;;0.70;;
24567;SDS011;12731;52.182;8.716;2023-03-13T14:40:46;1.75;;;0.80;;
24567;SDS011;12731;52.182;8.716;2023-03-13T14:43:16;2.03;;;1.05;;
24567;SDS011;12731;52.182;8.716;2023-03-13T14:45:48;1.63;;;0.90;;
24567;SDS011;12731;52.182;8.716;2023-03-13T14:48:18;2.47;;;0.70;;
24567;SDS011;12731;52.182;8.716;2023-03-13T14:50:45;2.03;;;0.80;;
24567;SDS011;12731;52.182;8.716;2023-03-13T14:53:15;1.83;;;0.80;;
24567;SDS011;12731;52.182;8.716;2023-03-13T14:55:43;3.45;;;0.93;;
24567;SDS011;12731;52.182;8.716;2023-03-13T14:58:31;1.20;;;0.77;;
24567;SDS011;12731;52.182;8.716;2023-03-13T15:00:56;2.80;;;0.70;;
24567;SDS011;12731;52.182;8.716;2023-03-13T15:03:28;2.20;;;0.70;;
24567;SDS011;12731;52.182;8.716;2023-03-13T15:08:35;2.03;;;0.63;;
24567;SDS011;12731;52.182;8.716;2023-03-13T15:11:18;2.00;;;0.80;;
24567;SDS011;12731;52.182;8.716;2023-03-13T15:13:46;2.22;;;0.90;;
24567;SDS011;12731;52.182;8.716;2023-03-13T15:16:14;10.00;;;6.35;;
24567;SDS011;12731;52.182;8.716;2023-03-13T15:18:48;1.35;;;0.90;;
24567;SDS011;12731;52.182;8.716;2023-03-13T15:21:18;2.03;;;1.70;;
24567;SDS011;12731;52.182;8.716;2023-03-13T15:23:48;4.32;;;2.40;;
24567;SDS011;12731;52.182;8.716;2023-03-13T15:26:16;4.53;;;2.50;;
24567;SDS011;12731;52.182;8.716;2023-03-13T15:28:42;3.25;;;2.20;;
24567;SDS011;12731;52.182;8.716;2023-03-13T15:31:09;2.03;;;1.40;;
24567;SDS011;12731;52.182;8.716;2023-03-13T15:33:37;2.90;;;1.30;;
24567;SDS011;12731;52.182;8.716;2023-03-13T15:36:04;1.85;;;1.10;;
24567;SDS011;12731;52.182;8.716;2023-03-13T15:38:30;3.33;;;1.00;;
24567;SDS011;12731;52.182;8.716;2023-03-13T15:40:57;1.42;;;0.82;;
24567;SDS011;12731;52.182;8.716;2023-03-13T15:43:23;1.75;;;0.80;;
24567;SDS011;12731;52.182;8.716;2023-03-13T15:45:50;2.20;;;1.00;;
24567;SDS011;12731;52.182;8.716;2023-03-13T15:48:18;1.15;;;0.75;;
24567;SDS011;12731;52.182;8.716;2023-03-13T15:50:50;2.80;;;0.73;;
24567;SDS011;12731;52.182;8.716;2023-03-13T15:55:47;2.15;;;0.80;;
24567;SDS011;12731;52.182;8.716;2023-03-13T15:58:14;3.35;;;0.70;;
24567;SDS011;12731;52.182;8.716;2023-03-13T16:00:41;1.17;;;0.80;;
24567;SDS011;12731;52.182;8.716;2023-03-13T16:03:12;2.50;;;1.00;;
24567;SDS011;12731;52.182;8.716;2023-03-13T16:05:40;1.85;;;1.08;;
24567;SDS011;12731;52.182;8.716;2023-03-13T16:08:09;1.48;;;0.93;;
24567;SDS011;12731;52.182;8.716;2023-03-13T16:10:45;1.45;;;1.10;;
24567;SDS011;12731;52.182;8.716;2023-03-13T16:13:12;1.13;;;0.75;;
24567;SDS011;12731;52.182;8.716;2023-03-13T16:15:39;1.67;;;0.70;;
24567;SDS011;12731;52.182;8.716;2023-03-13T16:18:05;1.90;;;1.02;;
24567;SDS011;12731;52.182;8.716;2023-03-13T16:20:33;2.42;;;1.13;;
24567;SDS011;12731;52.182;8.716;2023-03-13T16:22:59;3.90;;;1.10;;
24567;SDS011;12731;52.182;8.716;2023-03-13T16:25:29;3.15;;;0.90;;
24567;SDS011;12731;52.182;8.716;2023-03-13T16:27:57;2.42;;;0.93;;
24567;SDS011;12731;52.182;8.716;2023-03-13T16:30:25;2.50;;;0.90;;
24567;SDS011;12731;52.182;8.716;2023-03-13T16:32:53;1.95;;;1.10;;
24567;SDS011;12731;52.182;8.716;2023-03-13T16:35:20;3.22;;;0.88;;
24567;SDS011;12731;52.182;8.716;2023-03-13T16:37:47;5.93;;;1.00;;
24567;SDS011;12731;52.182;8.716;2023-03-13T16:40:17;1.50;;;1.00;;
24567;SDS011;12731;52.182;8.716;2023-03-13T16:42:45;1.70;;;0.70;;
24567;SDS011;12731;52.182;8.716;2023-03-13T16:45:12;4.03;;;0.98;;